Hemling, Sweden

9:13 PM CEST on October 01, 2016 (GMT +0200)
Eldsmark | | Change Station

Elev 312 ft 63.46 °N, 19.06 °E | Updated 4 seconds ago

Clear
Clear
44.2 °F
Feels Like 44 °F
N
0.0
Wind Variable Wind from ESE
Gusts 0.0 mph

Today
High -- | Low -- °F
--% Chance of Precip.
Yesterday
High -- | Low -- °F
Precip. -- in
Pressure 29.68 in
Visibility 6.2 miles
Clouds
Windchill 44 °F
Dew Point 33 °F
Humidity 64%
Rainfall 0.00 in
Snow Depth Not available.
6:55 AM 6:14 PM
New Moon, 1% visible
METAR ESNO 011850Z AUTO 26010KT 9999 NCD 07/02 Q1005
Pressure 29.68 in
Visibility 6.2 miles
Clouds
Windchill 44 °F
Dew Point 33 °F
Humidity 64%
Rainfall 0.00 in
Snow Depth Not available.
6:55 AM 6:14 PM
New Moon, 1% visible
METAR ESNO 011850Z AUTO 26010KT 9999 NCD 07/02 Q1005

10-Day Weather Forecast

×

Almanac

Astronomy

Oct. 01, 2016 Rise Set
Actual Time
Civil Twilight
Nautical Twilight
Astronomical Twilight
Moon
Length of Visible Light
Length of Day
Tomorrow will be .
, % of the Moon is Illuminated

Today's Extremes

Country Highs Country Lows

Community

WunderPhotos

Upload Photos

1,942,999 photos uploaded!

WunderBlog® & News

Nearby

Air Quality

  Air Quality AQ Index Pollutant
Not available.

Snow Depth

Station Depth Elevation

Earthquake Activity

City Distance Mag. Time & Date
Minimum magnitude displayed is 2.5.

Coastal Water Temperatures

Place Temperature

Stations

Nearby Weather Stations

Station Location Temp. Windchill Dew Point Humidity Wind Precip. Elev Updated Type